Date,TemperatureHighF,TemperatureAvgF,TemperatureLowF,DewpointHighF,DewpointAvgF,DewpointLowF,HumidityHigh,HumidityAvg,HumidityLow,PressureMaxIn,PressureMinIn,WindSpeedMaxMPH,WindSpeedAvgMPH,GustSpeedMaxMPH,PrecipitationSumIn
2013-1-1,43,39,35,31,28,24,72,65,60,29.57,29.45,6,1,13,0.00
2013-1-2,35,30,24,26,18,14,71,61,47,29.77,29.53,7,1,14,0.00
2013-1-3,36,29,20,20,18,14,79,63,48,29.78,29.67,7,1,13,0.00
2013-1-4,40,33,24,24,22,18,81,64,51,29.73,29.62,9,2,20,0.00
2013-1-5,42,35,28,28,23,20,74,63,49,29.91,29.66,5,1,11,0.00
2013-1-6,50,40,28,35,29,25,93,66,43,29.74,29.57,8,1,14,0.00
2013-1-7,46,38,26,31,27,22,86,66,50,29.97,29.68,7,1,13,0.00
2013-1-8,51,36,24,35,28,22,90,75,47,29.96,29.90,6,1,9,0.00
2013-1-9,50,39,27,42,34,25,92,83,65,29.93,29.76,4,0,7,0.00
2013-1-10,50,43,33,34,30,26,82,60,45,30.13,29.90,5,1,11,0.00
2013-1-11,46,41,38,41,35,28,93,77,65,30.05,29.64,4,0,7,0.19
2013-1-12,57,47,41,50,43,40,94,88,74,29.72,29.64,3,0,4,0.00
2013-1-13,50,46,41,47,44,39,95,93,91,29.69,29.53,3,1,5,0.00
2013-1-14,56,50,39,54,45,35,97,83,62,29.85,29.50,7,1,11,0.19
2013-1-15,41,38,34,38,35,32,95,88,75,29.88,29.69,5,1,8,0.40
2013-1-16,42,37,33,40,35,32,95,95,91,29.70,29.40,4,1,8,0.48
2013-1-17,45,40,36,40,32,29,94,72,62,29.67,29.50,6,1,11,0.01
2013-1-18,36,31,26,30,18,9,79,58,36,30.02,29.59,8,2,17,0.00
2013-1-19,50,39,27,31,26,15,79,59,44,29.95,29.49,10,2,14,0.00
2013-1-20,55,46,42,33,28,15,59,51,24,29.49,29.36,10,3,24,0.00
2013-1-21,38,31,26,26,18,12,72,57,49,29.65,29.37,7,2,18,0.00
2013-1-22,27,19,13,11,0,-4,55,44,34,29.81,29.48,9,3,19,0.00
2013-1-23,24,18,12,4,0,-1,62,47,35,29.86,29.69,4,2,11,0.00
2013-1-24,25,19,14,12,7,2,83,61,37,30.02,29.65,6,2,14,0.00
2013-1-25,23,18,14,16,9,3,87,67,47,30.02,29.60,4,1,5,0.00
2013-1-26,32,24,18,20,17,14,87,76,59,29.95,29.62,4,0,8,0.00
2013-1-27,35,26,18,23,19,15,87,75,51,30.12,29.97,4,0,8,0.00
2013-1-28,37,33,27,35,30,23,92,86,74,30.04,29.59,9,1,14,0.12
2013-1-29,62,47,33,52,42,29,93,81,68,29.68,29.54,4,1,7,0.01
2013-1-30,69,54,42,62,51,40,94,89,76,29.54,28.81,11,2,24,1.38
2013-1-31,57,41,27,55,29,8,95,62,41,29.44,28.70,14,5,31,0.50
2013-2-1,30,25,18,24,12,5,87,57,43,29.89,29.36,11,3,21,0.00
2013-2-2,30,22,14,24,13,5,92,68,43,29.90,29.56,6,1,12,0.00
2013-2-3,35,28,18,28,24,16,93,84,65,29.56,29.37,11,1,23,0.04
2013-2-4,36,28,19,21,17,11,73,61,48,29.63,29.44,8,1,15,0.01
2013-2-5,38,33,29,31,27,21,90,78,65,29.49,29.40,3,0,6,0.00
2013-2-6,42,34,26,31,26,19,93,74,55,29.90,29.48,8,1,14,0.00
2013-2-7,38,32,23,27,22,16,85,68,45,29.99,29.76,4,1,8,0.00
2013-2-8,41,37,32,38,32,24,93,85,70,29.76,29.28,12,2,24,0.17
2013-2-9,37,30,25,24,18,15,71,60,47,29.92,29.43,12,3,24,0.00
2013-2-10,40,31,18,27,17,12,86,58,35,30.02,29.79,4,1,8,0.00
2013-2-11,50,43,35,47,39,27,93,87,66,29.79,29.24,8,2,11,0.25
2013-2-12,52,45,33,36,30,26,75,57,45,29.54,29.34,8,2,18,0.01
2013-2-13,45,35,26,33,28,23,93,78,56,29.52,29.22,4,0,10,0.07
2013-2-14,45,36,29,36,30,26,94,78,48,29.56,29.31,4,1,8,0.20
2013-2-15,57,42,29,39,33,27,95,74,42,29.58,29.45,8,1,16,0.13
2013-2-16,38,34,31,34,29,18,94,81,58,29.56,29.36,5,1,15,0.01
2013-2-17,32,27,22,19,14,6,72,57,39,29.71,29.35,11,4,24,0.01
2013-2-18,39,28,17,21,10,5,67,47,31,29.90,29.70,7,2,17,0.00
2013-2-19,43,36,28,41,30,20,93,78,56,29.71,29.26,9,2,16,0.11
2013-2-20,35,30,23,24,16,10,67,56,45,29.68,29.38,12,3,23,0.01
2013-2-21,36,28,22,18,15,0,67,56,46,29.86,29.63,10,2,18,0.00
2013-2-22,34,31,26,30,22,16,91,71,59,29.93,29.76,4,1,8,0.00
2013-2-23,47,39,32,44,36,30,95,91,88,29.77,29.36,3,1,6,0.07
2013-2-24,48,40,29,44,31,21,94,72,48,29.64,29.34,10,2,21,0.00
2013-2-25,47,36,27,28,23,19,80,61,43,29.77,29.63,7,1,12,0.00
2013-2-26,42,36,27,39,32,23,95,84,65,29.77,29.19,12,2,21,0.48
2013-2-27,55,47,40,44,38,33,93,74,53,29.24,29.06,8,2,20,0.07
2013-2-28,50,42,38,36,31,26,79,65,42,29.27,29.18,8,2,14,0.00
2013-3-1,47,40,35,34,29,24,78,66,56,29.41,29.25,8,2,14,0.00
2013-3-2,40,34,30,27,23,20,71,64,51,29.42,29.34,7,2,14,0.00
2013-3-3,39,33,29,23,20,18,72,60,49,29.43,29.33,9,3,19,0.00
2013-3-4,40,32,25,21,18,14,65,55,44,29.56,29.43,10,3,19,0.00
2013-3-5,46,37,26,29,22,13,69,55,34,29.62,29.39,7,2,11,0.00
2013-3-6,38,35,33,35,32,26,96,89,65,29.52,29.21,103,4,103,0.64
2013-3-7,47,40,33,30,27,24,78,60,44,29.68,29.52,11,3,21,0.01
2013-3-8,48,40,32,29,26,22,74,56,46,29.81,29.66,12,4,24,0.00
2013-3-9,59,45,33,27,23,17,67,45,21,29.88,29.79,6,2,12,0.00
2013-3-10,58,46,29,35,25,13,80,49,18,29.88,29.77,7,2,11,0.00
2013-3-11,58,50,42,48,43,35,91,79,63,29.81,29.48,7,2,14,0.00
2013-3-12,57,51,40,54,45,31,93,80,61,29.52,29.28,8,2,19,0.54
2013-3-13,51,40,29,36,27,20,91,62,34,29.58,29.43,11,2,21,0.00
2013-3-14,42,36,30,20,17,14,65,48,33,29.63,29.55,12,4,24,0.00
2013-3-15,54,42,27,33,23,16,69,48,32,29.61,29.32,11,2,21,0.00
2013-3-16,50,43,36,38,34,31,86,71,54,29.48,29.23,7,1,12,0.00
2013-3-17,42,37,33,32,28,22,90,71,53,29.82,29.47,7,1,11,0.00
2013-3-18,36,36,36,22,22,21,56,56,55,29.82,29.81,2,1,6,0.00
2013-3-19,36,36,36,22,22,22,56,56,56,29.82,29.82,1,1,4,0.00
2013-3-20,36,36,36,22,22,22,56,56,56,29.82,29.82,1,1,4,0.00
2013-3-21,47,34,26,29,18,9,56,52,34,30.05,29.82,9,1,21,0.32
2013-3-22,46,35,26,24,18,11,64,50,36,30.17,30.02,10,3,19,0.00
2013-3-23,49,39,26,27,22,18,75,52,34,30.19,30.09,10,2,19,0.00
2013-3-24,46,36,27,30,23,19,79,60,41,30.17,29.85,5,1,10,0.00
2013-3-25,40,35,32,36,32,30,95,89,79,29.87,29.69,4,0,7,0.40
2013-3-26,51,41,29,38,31,24,96,72,37,30.14,29.86,6,1,12,0.02
2013-3-27,54,43,36,35,30,27,73,60,41,30.27,30.13,10,3,21,0.01
2013-3-28,51,42,31,36,29,25,86,63,40,30.38,30.24,8,2,17,0.00
2013-3-29,59,48,40,34,29,26,65,49,33,30.41,30.31,7,2,17,0.00
2013-3-30,67,47,32,39,28,20,84,51,25,30.40,30.29,7,1,11,0.00
2013-3-31,55,46,38,48,40,27,94,79,60,30.31,29.92,4,1,9,0.04
2013-4-1,70,49,37,49,36,16,95,64,39,30.15,29.90,11,2,24,0.01
2013-4-2,38,30,30,19,19,16,64,62,41,30.19,30.16,3,0,6,0.00
2013-4-3,30,30,30,19,19,19,64,64,64,30.17,30.17,0,0,0,0.00
2013-4-4,30,30,30,19,19,19,64,64,64,30.17,30.17,0,0,0,0.00
2013-4-5,30,30,30,19,19,19,64,64,64,30.17,30.17,0,0,0,0.00
2013-4-6,54,42,30,29,19,14,64,44,21,30.17,29.47,6,1,11,0.07
2013-4-7,68,53,38,43,37,28,80,56,35,29.89,29.59,10,3,17,0.00
2013-4-8,84,66,49,53,48,41,76,53,29,29.69,29.57,6,1,11,0.00
2013-4-9,85,73,57,58,53,49,76,52,37,29.69,29.53,8,2,14,0.00
2013-4-10,92,77,61,60,56,52,72,50,31,29.58,29.38,10,2,18,0.00
2013-4-11,89,70,54,64,58,51,90,68,38,29.52,29.39,8,2,15,0.00
2013-4-12,65,54,50,60,52,49,97,93,81,29.47,29.23,7,2,14,0.35
2013-4-13,68,55,41,50,43,38,97,67,41,29.57,29.39,8,2,14,0.00
2013-4-14,68,56,40,44,38,34,88,55,31,29.75,29.57,7,1,14,0.00
2013-4-15,64,57,52,51,47,40,83,69,56,29.91,29.75,5,2,9,0.00
2013-4-16,74,62,52,60,54,48,86,75,58,29.94,29.73,7,2,14,0.00
2013-4-17,78,65,57,64,58,54,96,77,58,29.86,29.73,6,1,11,0.00
2013-4-18,72,62,56,65,57,51,95,83,68,29.86,29.64,6,2,11,0.08
2013-4-19,76,64,53,68,61,50,97,90,72,29.64,29.22,7,2,14,0.72
2013-4-20,62,53,45,50,36,27,93,57,35,29.95,29.39,8,2,17,0.02
2013-4-21,56,47,37,34,26,21,68,46,29,30.20,29.94,6,2,13,0.00
2013-4-22,57,48,36,39,35,32,86,63,44,30.19,30.02,6,2,14,0.00
2013-4-23,63,52,44,45,41,35,84,68,48,30.03,29.74,6,1,11,0.00
2013-4-24,76,62,44,60,52,42,96,73,56,29.75,29.40,8,2,24,0.00
2013-4-25,63,55,44,50,35,29,71,49,30,29.91,29.58,11,2,21,0.00
2013-4-26,67,55,41,42,35,27,85,51,25,30.06,29.91,6,1,11,0.00
2013-4-27,72,57,39,43,37,32,86,51,27,30.04,29.90,4,1,8,0.00
2013-4-28,74,59,43,49,41,35,87,54,30,29.91,29.76,8,2,13,0.00
2013-4-29,59,56,53,58,53,40,97,91,55,29.78,29.68,4,1,8,0.35
2013-4-30,64,57,51,59,54,43,97,89,75,29.91,29.72,5,1,12,0.14
2013-5-1,72,58,43,47,41,33,86,57,27,30.04,29.91,6,1,11,0.00
2013-5-2,70,57,42,52,46,41,94,67,40,30.06,29.93,6,1,11,0.00
2013-5-3,68,57,46,49,45,40,92,66,39,30.00,29.92,7,1,14,0.00
2013-5-4,68,57,45,49,44,40,91,64,37,29.96,29.79,4,1,10,0.00
2013-5-5,64,54,44,46,43,39,84,67,48,29.87,29.77,5,1,12,0.00
2013-5-6,63,55,45,58,51,42,91,85,77,29.81,29.70,3,1,11,0.00
2013-5-7,64,60,57,63,59,56,100,96,91,29.71,29.58,5,1,13,0.44
2013-5-8,75,63,57,65,58,55,97,85,57,29.62,29.55,4,1,7,0.06
2013-5-9,77,65,53,63,57,52,100,79,56,29.61,29.54,6,1,10,0.00
2013-5-10,86,71,54,65,60,52,97,71,44,29.63,29.49,5,1,9,0.52
2013-5-11,78,67,62,69,64,35,100,91,63,29.55,29.34,6,1,25,0.38
2013-5-12,70,60,50,63,45,30,100,61,33,29.64,29.36,8,2,17,0.01
2013-5-13,68,52,41,41,33,24,80,51,28,29.77,29.63,8,1,17,0.00
2013-5-14,66,53,35,47,37,31,88,58,33,29.82,29.67,6,1,11,0.00
2013-5-15,77,65,54,64,56,44,89,73,60,29.69,29.32,4,1,9,0.02
2013-5-16,83,73,66,66,62,58,85,69,56,29.53,29.36,6,1,14,0.00
2013-5-17,86,72,55,61,52,44,94,54,26,29.77,29.53,4,1,8,0.00
2013-5-18,72,65,60,62,55,50,92,72,57,29.86,29.77,5,1,8,0.01
2013-5-19,68,64,59,66,62,58,100,95,90,29.84,29.73,2,0,4,0.05
2013-5-20,80,71,64,71,67,64,100,88,72,29.75,29.61,2,0,4,0.00
2013-5-21,84,75,66,74,69,65,100,85,69,29.62,29.50,3,1,7,0.00
2013-5-22,90,78,68,77,71,66,100,80,58,29.55,29.45,2,1,5,0.12
2013-5-23,80,69,65,71,66,63,100,93,70,29.51,29.38,3,0,6,0.83
2013-5-24,65,57,49,65,52,36,100,83,61,29.74,29.35,8,2,17,0.12
2013-5-25,68,56,44,45,39,35,77,53,36,29.75,29.67,8,2,19,0.00
2013-5-26,76,61,47,48,41,36,71,50,30,29.83,29.73,6,1,13,0.00
2013-5-27,80,63,45,51,46,39,86,57,29,29.91,29.80,5,0,9,0.00
2013-5-28,78,67,59,67,61,50,94,81,68,29.83,29.69,4,0,6,0.08
2013-5-29,94,79,65,74,68,64,100,71,48,29.74,29.68,8,1,14,0.01
2013-5-30,99,82,68,75,69,64,90,66,42,29.80,29.72,4,0,8,0.00
2013-5-31,96,81,68,73,67,64,92,64,43,29.77,29.64,7,1,12,0.00
2013-6-1,98,82,68,75,68,64,89,65,47,29.67,29.53,5,1,11,0.00
2013-6-2,94,78,69,74,69,64,97,74,50,29.54,29.46,6,1,13,0.27
2013-6-3,83,73,66,75,67,58,100,84,61,29.56,29.45,4,0,10,0.15
2013-6-4,82,68,57,58,51,46,80,57,34,29.75,29.56,5,1,11,0.01
2013-6-5,82,69,54,58,54,50,92,63,38,29.82,29.68,4,0,7,0.00
2013-6-6,79,68,62,66,60,54,97,78,60,29.72,29.51,3,0,5,0.25
2013-6-7,72,68,64,72,68,64,100,99,96,29.51,29.23,4,0,10,1.22
2013-6-8,84,71,64,71,65,62,100,83,62,29.72,29.30,4,0,10,0.00
2013-6-9,83,72,61,70,65,59,95,79,56,29.83,29.71,4,0,7,0.00
2013-6-10,78,73,68,77,71,67,100,96,86,29.74,29.42,4,0,9,1.07
2013-6-11,92,75,67,76,69,65,100,81,55,29.47,29.39,7,1,13,0.00
2013-6-12,86,76,66,75,69,64,95,78,61,29.49,29.42,4,0,10,0.00
2013-6-13,86,75,68,74,69,60,96,84,60,29.46,29.08,8,1,20,0.38
2013-6-14,77,68,60,60,58,53,92,70,48,29.59,29.20,7,1,15,0.01
2013-6-15,86,72,58,68,59,55,93,66,43,29.70,29.59,4,0,8,0.00
2013-6-16,87,73,62,73,65,56,90,75,57,29.65,29.50,6,0,11,0.00
2013-6-17,90,79,69,75,69,63,95,72,56,29.58,29.50,4,0,7,0.04
2013-6-18,79,72,65,75,70,64,100,93,81,29.55,29.42,3,0,7,0.05
2013-6-19,78,69,62,66,62,58,100,80,54,29.78,29.51,3,0,6,0.02
2013-6-20,85,72,59,72,62,56,100,73,50,29.90,29.78,3,0,6,0.00
2013-6-21,87,73,57,66,57,47,90,59,32,29.93,29.85,3,0,6,0.00
2013-6-22,90,77,62,73,67,59,96,73,55,29.88,29.75,4,1,7,0.00
2013-6-23,84,76,66,75,70,64,95,83,73,29.82,29.69,2,0,4,0.01
2013-6-24,92,80,70,80,72,66,100,76,53,29.75,29.65,5,0,11,0.00
2013-6-25,96,83,68,79,72,66,96,70,52,29.66,29.51,4,0,9,0.00
2013-6-26,88,88,88,72,72,72,59,59,59,29.51,29.51,0,0,5,0.00
2013-6-27,88,88,88,72,72,72,59,59,59,29.51,29.51,0,0,5,0.00
2013-6-28,88,88,88,72,72,72,59,59,59,29.51,29.51,0,0,5,0.00
2013-6-29,88,88,88,72,72,72,59,59,59,29.51,29.51,0,0,5,0.00
2013-6-30,88,88,88,72,72,72,59,59,59,29.51,29.51,0,0,5,0.00
2013-7-1,88,84,47,78,72,29,94,69,50,29.99,29.51,5,0,11,1.06
2013-7-2,86,77,73,79,74,72,100,91,75,30.18,29.99,6,1,10,0.01
2013-7-3,87,77,72,81,74,71,100,92,75,30.24,30.17,3,0,7,0.12
2013-7-4,88,80,73,80,75,72,100,84,69,30.26,30.17,4,1,8,0.00
2013-7-5,94,83,73,81,75,72,100,78,62,30.23,30.11,5,1,11,0.00
2013-7-6,97,85,73,82,75,71,96,74,57,30.18,30.05,4,1,9,0.00
2013-7-7,95,82,71,82,74,70,94,78,60,30.11,29.98,5,0,11,0.01
2013-7-8,88,79,70,78,72,69,100,80,61,30.10,30.03,4,0,9,0.01
2013-7-9,87,78,72,78,73,70,94,84,72,30.10,30.00,2,0,4,0.00
2013-7-10,88,80,74,79,75,72,97,86,72,30.02,29.86,5,0,8,0.00
2013-7-11,84,78,73,75,72,68,100,82,63,29.93,29.83,4,0,8,0.01
2013-7-12,75,70,67,71,68,14,100,92,77,30.02,29.91,4,0,11,0.43
2013-7-13,86,76,69,78,73,69,100,90,75,30.29,30.01,2,0,5,0.06
2013-7-14,93,82,73,81,75,72,100,83,63,30.34,30.27,3,0,6,0.00
2013-7-15,99,83,71,80,75,71,100,78,53,30.30,30.22,4,0,8,0.00
2013-7-16,98,84,0,77,72,71,89,66,47,30.25,30.17,3,0,7,0.00
2013-7-17,99,86,73,78,73,68,93,67,47,30.22,30.10,4,0,8,0.00
2013-7-18,99,87,75,82,78,73,92,76,55,30.12,30.00,2,0,4,0.02
2013-7-19,101,86,74,84,78,71,94,77,53,30.01,29.87,5,1,10,0.44
2013-7-20,94,83,73,80,75,71,92,78,60,29.90,29.79,6,0,11,0.01
2013-7-21,92,81,71,75,73,69,94,79,55,29.94,29.88,2,0,4,0.00
2013-7-22,90,83,72,79,76,71,100,80,65,29.93,29.77,2,0,4,0.00
2013-7-23,84,84,84,76,76,76,79,79,79,29.78,29.78,0,0,2,0.00
2013-7-24,84,84,84,76,76,76,79,79,79,29.78,29.78,0,0,2,0.00
2013-7-25,84,80,47,76,73,29,88,79,50,29.96,29.77,5,0,11,0.21
2013-7-26,89,75,64,69,63,60,94,70,46,30.01,29.95,3,0,6,0.00
2013-7-27,89,75,66,74,69,63,100,83,60,29.99,29.85,7,0,15,0.51
2013-7-28,84,76,69,76,71,66,100,87,68,29.94,29.82,4,0,8,0.08
2013-7-29,86,73,63,67,62,57,100,72,43,30.08,29.91,4,0,9,0.02
2013-7-30,88,73,60,66,61,55,91,69,44,30.15,30.07,5,0,8,0.00
2013-7-31,85,73,62,72,66,61,96,79,62,30.08,29.94,3,0,5,0.00
2013-8-1,83,74,68,76,71,67,100,90,72,29.95,29.74,2,0,5,0.34
2013-8-2,90,77,65,74,69,64,100,77,54,29.89,29.77,4,0,8,0.00
2013-8-3,77,69,65,72,67,65,100,92,81,29.91,29.84,3,0,7,0.15
2013-8-4,84,71,62,66,61,54,100,73,48,29.95,29.83,5,1,11,0.00
2013-8-5,84,71,57,65,59,55,94,69,46,30.03,29.94,3,0,6,0.00
2013-8-6,72,68,65,70,66,60,100,93,80,30.02,29.94,3,0,6,0.11
2013-8-7,81,74,67,75,72,67,100,94,80,30.01,29.93,2,0,4,0.21
2013-8-8,87,77,70,79,74,69,100,92,71,29.99,29.90,6,0,11,1.45
2013-8-9,89,79,74,82,76,73,100,91,75,29.91,29.78,5,0,12,0.58
2013-8-10,82,75,69,73,70,66,96,83,61,30.01,29.86,3,0,4,0.00
2013-8-11,86,76,66,73,69,65,100,82,60,30.05,29.93,3,0,8,0.00
2013-8-12,86,77,69,77,71,22,97,82,10,29.96,29.85,97,1,97,0.00
2013-8-13,83,76,72,75,72,63,100,87,72,29.85,29.67,3,0,49,0.00
2013-8-14,78,68,58,63,56,49,87,66,50,30.01,29.74,6,1,103,0.00
2013-8-15,81,67,55,61,55,52,92,68,44,30.11,30.01,4,0,8,0.00
2013-8-16,84,68,55,68,58,53,97,73,48,30.13,30.06,3,0,6,0.00
2013-8-17,84,69,56,67,60,55,97,73,49,30.19,30.13,4,0,8,0.00
2013-8-18,75,69,65,64,63,60,94,82,64,30.17,29.71,3,0,7,0.00
2013-8-19,78,70,62,70,66,61,97,87,75,30.11,29.62,4,0,6,0.00
2013-8-20,89,75,63,77,67,63,100,79,55,30.09,29.64,3,0,6,0.00
2013-8-21,87,77,66,79,72,65,100,84,67,30.13,29.62,3,0,5,0.00
2013-8-22,87,79,70,77,72,67,96,80,64,30.01,29.48,3,0,7,0.00
2013-8-23,76,71,46,70,66,29,95,85,50,29.99,29.49,5,0,11,0.00
2013-8-24,83,71,61,68,60,57,95,72,47,30.22,29.99,4,0,8,0.00
2013-8-25,85,70,57,71,60,54,97,73,50,30.29,30.14,4,0,6,0.00
2013-8-26,86,74,60,72,64,56,91,72,57,30.16,29.87,5,0,9,0.00
2013-8-27,92,79,71,79,71,66,94,78,62,29.87,29.75,4,0,8,0.00
2013-8-28,84,76,72,77,73,70,96,90,77,29.80,29.70,2,0,7,0.00
2013-8-29,83,76,71,74,71,69,100,87,69,29.90,29.73,4,0,8,0.00
2013-8-30,88,78,70,77,71,68,94,80,62,29.92,29.77,5,0,8,0.00
2013-8-31,90,80,70,78,73,69,97,81,60,29.78,29.67,4,0,7,0.00
2013-9-1,90,80,70,78,73,68,96,82,60,29.73,29.64,3,0,5,0.00
2013-9-2,89,81,73,76,73,71,95,78,61,29.68,29.60,4,0,10,0.00
2013-9-3,85,76,66,73,66,56,95,71,49,29.83,29.61,4,1,10,0.00
2013-9-4,102,69,1,83,56,-4,93,66,42,29.95,29.83,3,1,13,0.76
2013-9-5,84,71,59,68,61,57,92,72,55,30.00,29.88,4,0,10,0.00
2013-9-6,74,74,74,61,61,61,65,65,65,30.14,30.00,0,0,0,0.00
2013-9-7,74,74,74,61,61,61,65,65,65,30.03,29.97,0,0,0,0.00
2013-9-8,93,49,29,75,34,14,67,56,46,30.18,29.98,8,3,17,0.01
2013-9-9,36,27,22,18,13,10,67,56,46,30.32,30.19,5,3,11,0.00
2013-9-10,34,30,26,25,19,16,74,62,47,30.53,30.31,4,1,8,0.00
2013-9-11,46,35,32,43,32,26,95,89,75,30.42,30.01,2,1,4,0.07
2013-9-12,90,57,39,72,54,29,100,91,50,30.34,29.91,6,1,11,12.14
2013-9-13,77,69,62,69,61,53,100,80,50,30.09,29.87,4,1,14,0.00
2013-9-14,69,60,51,54,51,48,93,73,55,30.33,30.09,4,0,11,0.00
2013-9-15,75,62,47,58,53,46,100,77,52,30.40,30.25,4,0,7,0.00
2013-9-16,71,64,57,62,58,55,93,81,62,30.41,30.20,4,0,10,0.00
2013-9-17,61,58,48,55,47,42,84,67,53,30.59,30.41,4,0,8,0.00
2013-9-18,61,61,61,46,46,46,57,57,57,30.59,30.59,0,0,7,0.00
2013-9-19,61,61,61,46,46,46,57,57,57,30.59,30.59,0,0,7,0.00
2013-10-6,96,80,68,78,70,67,96,74,53,30.02,29.94,3,0,6,0.00
2013-10-7,92,47,29,75,32,13,67,56,46,29.97,29.77,8,3,17,0.01
2013-10-8,36,27,22,18,13,10,67,56,46,30.11,29.98,5,3,11,0.00
2013-10-9,34,30,26,26,19,16,75,63,47,30.31,30.10,4,1,8,0.00
2013-10-10,46,35,32,43,33,26,95,90,78,30.21,29.80,2,1,4,0.07
2013-10-11,90,47,39,72,42,29,99,85,50,30.12,29.73,6,2,11,16.30
2013-10-12,67,63,59,62,60,58,100,88,78,30.13,29.94,4,1,10,0.00
2013-10-13,66,60,55,60,58,53,100,92,78,30.29,30.12,4,0,10,0.00
2013-10-14,66,59,53,58,54,52,96,85,64,30.30,30.18,4,0,7,0.00
2013-10-15,69,58,51,58,51,43,100,80,43,30.19,30.04,4,0,8,0.00
2013-10-16,70,63,57,64,59,53,100,89,80,30.04,29.86,2,0,4,0.00
2013-10-17,74,66,61,68,63,59,100,92,75,29.87,29.67,4,0,9,0.00
2013-10-18,64,56,47,59,48,45,93,75,55,29.96,29.75,4,0,11,0.00
2013-10-19,66,55,44,57,51,43,97,88,62,29.95,29.73,4,1,9,0.00
2013-10-20,60,51,43,51,42,40,93,73,51,30.05,29.79,5,1,15,0.00
2013-10-21,64,51,39,49,44,38,97,78,48,30.10,29.91,6,1,9,0.00
2013-10-22,63,52,45,54,47,40,97,84,64,29.92,29.77,4,0,7,0.00
2013-10-23,58,50,43,43,39,37,83,67,49,29.82,29.60,4,0,10,0.00
2013-10-24,52,44,37,39,34,31,88,70,50,30.06,29.82,7,1,14,0.00
2013-10-25,55,43,34,39,34,30,90,71,49,30.25,30.05,7,1,13,0.00
2013-10-26,53,44,32,36,33,29,90,67,48,30.24,29.88,9,1,15,0.00
2013-10-27,57,47,37,42,36,33,87,68,49,30.10,29.89,7,0,12,0.00
2013-10-28,61,46,34,45,38,32,96,77,50,30.23,30.09,4,0,8,0.00
2013-10-29,60,48,38,47,42,36,93,80,58,30.33,30.22,3,0,5,0.00
2013-10-30,63,54,46,58,52,43,100,93,82,30.27,30.10,3,0,5,0.00
2013-10-31,68,60,53,62,58,53,100,93,79,30.14,29.73,7,1,12,0.00
2013-11-1,71,64,54,65,60,54,97,86,64,29.73,29.54,9,2,21,0.00
2013-11-2,66,56,46,56,48,41,100,79,51,29.82,29.60,5,0,11,0.00
2013-11-3,54,46,37,44,34,25,93,65,34,30.40,29.81,8,2,17,0.00
2013-11-4,47,38,31,28,24,21,77,58,38,30.57,30.40,5,1,9,0.00
2013-11-5,60,48,35,48,40,28,85,74,64,30.55,30.41,3,0,7,0.00
2013-11-6,67,56,45,54,50,43,96,83,63,30.40,30.00,5,1,9,0.00
2013-11-7,61,52,42,58,48,28,100,85,57,30.01,29.82,8,1,19,0.00
2013-11-8,52,41,32,36,29,27,87,64,42,30.25,30.00,7,1,14,0.00
2013-11-9,33,30,29,28,27,25,90,88,78,30.27,30.23,1,0,2,0.00
2013-11-10,31,31,31,28,28,28,89,89,89,30.26,30.26,0,0,0,0.00
2013-11-11,31,31,31,28,28,28,89,89,89,30.26,30.26,0,0,0,0.00
2013-11-12,47,31,28,28,25,15,89,80,44,30.26,29.47,5,0,11,0.00
2013-11-13,41,33,27,23,21,17,77,61,44,30.06,29.97,8,1,17,0.00
2013-11-14,56,39,26,24,20,15,74,51,21,29.98,29.83,6,1,12,0.00
2013-11-15,61,43,29,36,29,23,84,62,30,29.89,29.81,4,0,6,0.00